Terminal Aerodrome Forecast
Issued by NWS

Home | Current Version | Previous Version | Graphics & Text | Print | Product List | Glossary On
Versions: 1 2 3 4 5 6 7 8 9 10 11 12 13 14 15 16 17 18 19 20 21 22 23 24
000
FTUS43 KLSX 262324
TAFSUS
TAF
KSUS 262324Z 2700/2724 22008KT P6SM SCT040 BKN100
      TEMPO 2700/2702 5SM -TSRA BKN035CB
     FM270300 VRB03KT P6SM SCT100
      TEMPO 2709/2713 3SM BR
     FM271600 VRB04KT P6SM SCT050=

USA.gov is the U.S. government's official web portal to all federal, state and local government web resources and services.